sensor_id;sensor_type;location;lat;lon;timestamp;pressure;altitude;pressure_sealevel;temperature;humidity
15932;BME280;8065;49.520;11.284;2023-11-21T00:01:34;96904.03;;;13.19;79.17
15932;BME280;8065;49.520;11.284;2023-11-21T00:04:03;96906.69;;;13.19;79.11
15932;BME280;8065;49.520;11.284;2023-11-21T00:06:32;96904.97;;;13.11;79.23
15932;BME280;8065;49.520;11.284;2023-11-21T00:09:03;96900.16;;;13.01;78.97
15932;BME280;8065;49.520;11.284;2023-11-21T00:11:33;96898.78;;;13.07;79.08
15932;BME280;8065;49.520;11.284;2023-11-21T00:14:03;96901.59;;;13.14;78.84
15932;BME280;8065;49.520;11.284;2023-11-21T00:16:32;96909.59;;;13.14;79.00
15932;BME280;8065;49.520;11.284;2023-11-21T00:19:00;96902.91;;;13.04;79.24
15932;BME280;8065;49.520;11.284;2023-11-21T00:21:28;96902.56;;;13.06;79.28
15932;BME280;8065;49.520;11.284;2023-11-21T00:23:57;96907.13;;;13.05;79.30
15932;BME280;8065;49.520;11.284;2023-11-21T00:26:28;96900.31;;;13.08;79.09
15932;BME280;8065;49.520;11.284;2023-11-21T00:29:01;96899.88;;;13.06;79.42
15932;BME280;8065;49.520;11.284;2023-11-21T00:31:33;96893.34;;;13.03;79.05
15932;BME280;8065;49.520;11.284;2023-11-21T00:34:02;96889.66;;;13.08;79.40
15932;BME280;8065;49.520;11.284;2023-11-21T00:36:30;96891.88;;;13.06;79.36
15932;BME280;8065;49.520;11.284;2023-11-21T00:38:59;96891.53;;;13.07;79.37
15932;BME280;8065;49.520;11.284;2023-11-21T00:41:31;96896.59;;;13.12;79.08
15932;BME280;8065;49.520;11.284;2023-11-21T00:44:01;96891.38;;;13.16;78.99
15932;BME280;8065;49.520;11.284;2023-11-21T00:46:30;96891.03;;;13.02;79.29
15932;BME280;8065;49.520;11.284;2023-11-21T00:48:58;96884.94;;;13.01;79.47
15932;BME280;8065;49.520;11.284;2023-11-21T00:51:26;96889.34;;;12.94;79.91
15932;BME280;8065;49.520;11.284;2023-11-21T00:53:54;96882.63;;;13.00;79.69
15932;BME280;8065;49.520;11.284;2023-11-21T00:56:23;96892.66;;;13.06;79.46
15932;BME280;8065;49.520;11.284;2023-11-21T00:58:54;96887.13;;;12.96;79.97
15932;BME280;8065;49.520;11.284;2023-11-21T01:01:22;96894.81;;;13.01;79.89
15932;BME280;8065;49.520;11.284;2023-11-21T01:03:50;96885.69;;;13.02;80.00
15932;BME280;8065;49.520;11.284;2023-11-21T01:06:19;96895.81;;;12.93;79.95
15932;BME280;8065;49.520;11.284;2023-11-21T01:08:47;96899.44;;;12.85;80.04
15932;BME280;8065;49.520;11.284;2023-11-21T01:11:15;96897.13;;;12.83;79.94
15932;BME280;8065;49.520;11.284;2023-11-21T01:13:44;96900.03;;;12.78;80.00
15932;BME280;8065;49.520;11.284;2023-11-21T01:16:15;96897.56;;;12.69;80.23
15932;BME280;8065;49.520;11.284;2023-11-21T01:18:43;96897.28;;;12.74;79.68
15932;BME280;8065;49.520;11.284;2023-11-21T01:21:12;96898.16;;;12.78;79.75
15932;BME280;8065;49.520;11.284;2023-11-21T01:23:40;96890.66;;;12.84;79.52
15932;BME280;8065;49.520;11.284;2023-11-21T01:26:08;96896.78;;;12.85;79.74
15932;BME280;8065;49.520;11.284;2023-11-21T01:28:37;96898.91;;;12.95;79.54
15932;BME280;8065;49.520;11.284;2023-11-21T01:31:05;96897.09;;;12.99;79.43
15932;BME280;8065;49.520;11.284;2023-11-21T01:33:36;96899.88;;;13.06;79.36
15932;BME280;8065;49.520;11.284;2023-11-21T01:36:05;96898.06;;;13.10;79.30
15932;BME280;8065;49.520;11.284;2023-11-21T01:38:34;96901.78;;;13.05;79.73
15932;BME280;8065;49.520;11.284;2023-11-21T01:41:02;96904.09;;;13.07;79.58
15932;BME280;8065;49.520;11.284;2023-11-21T01:43:31;96897.31;;;13.09;79.35
15932;BME280;8065;49.520;11.284;2023-11-21T01:46:00;96896.72;;;13.00;79.49
15932;BME280;8065;49.520;11.284;2023-11-21T01:48:28;96894.81;;;13.01;nan
15932;BME280;8065;49.520;11.284;2023-11-21T01:51:00;96891.81;;;13.02;79.45
15932;BME280;8065;49.520;11.284;2023-11-21T01:53:28;96899.94;;;12.90;79.53
15932;BME280;8065;49.520;11.284;2023-11-21T01:55:56;96890.06;;;12.91;79.52
15932;BME280;8065;49.520;11.284;2023-11-21T01:58:25;96885.50;;;12.91;79.52
15932;BME280;8065;49.520;11.284;2023-11-21T02:00:53;96887.13;;;12.96;79.17
15932;BME280;8065;49.520;11.284;2023-11-21T02:03:22;96892.03;;;12.94;79.38
15932;BME280;8065;49.520;11.284;2023-11-21T02:05:51;96891.19;;;12.90;79.54
15932;BME280;8065;49.520;11.284;2023-11-21T02:08:22;96893.16;;;12.93;79.30
15932;BME280;8065;49.520;11.284;2023-11-21T02:10:52;96886.78;;;12.82;80.14
15932;BME280;8065;49.520;11.284;2023-11-21T02:13:20;96886.34;;;12.95;79.65
15932;BME280;8065;49.520;11.284;2023-11-21T02:15:49;96883.75;;;12.99;79.72
15932;BME280;8065;49.520;11.284;2023-11-21T02:18:19;96885.78;;;13.05;79.62
15932;BME280;8065;49.520;11.284;2023-11-21T02:20:48;96880.53;;;13.09;79.55
15932;BME280;8065;49.520;11.284;2023-11-21T02:23:19;96872.59;;;13.12;79.67
15932;BME280;8065;49.520;11.284;2023-11-21T02:25:48;96876.56;;;13.03;79.71
15932;BME280;8065;49.520;11.284;2023-11-21T02:28:17;96878.81;;;13.01;79.72
15932;BME280;8065;49.520;11.284;2023-11-21T02:30:51;96877.69;;;12.83;79.97
15932;BME280;8065;49.520;11.284;2023-11-21T02:33:21;96877.00;;;12.86;79.93
15932;BME280;8065;49.520;11.284;2023-11-21T02:35:49;96881.53;;;12.85;80.18
15932;BME280;8065;49.520;11.284;2023-11-21T02:38:22;96884.03;;;12.94;79.84
15932;BME280;8065;49.520;11.284;2023-11-21T02:40:50;96878.78;;;12.97;79.88
15932;BME280;8065;49.520;11.284;2023-11-21T02:43:19;96870.97;;;12.89;79.96
15932;BME280;8065;49.520;11.284;2023-11-21T02:45:47;96881.09;;;12.99;79.72
15932;BME280;8065;49.520;11.284;2023-11-21T02:48:15;96873.44;;;12.97;79.85
15932;BME280;8065;49.520;11.284;2023-11-21T02:50:43;96875.59;;;12.92;80.06
15932;BME280;8065;49.520;11.284;2023-11-21T02:53:12;96873.00;;;12.95;80.12
15932;BME280;8065;49.520;11.284;2023-11-21T02:55:43;96874.63;;;13.00;79.92
15932;BME280;8065;49.520;11.284;2023-11-21T02:58:11;96866.34;;;13.05;80.00
15932;BME280;8065;49.520;11.284;2023-11-21T03:00:40;96865.00;;;12.95;79.81
15932;BME280;8065;49.520;11.284;2023-11-21T03:03:08;96863.66;;;13.05;80.05
15932;BME280;8065;49.520;11.284;2023-11-21T03:05:36;96865.09;;;12.99;79.68
15932;BME280;8065;49.520;11.284;2023-11-21T03:08:04;96863.97;;;13.00;79.79
15932;BME280;8065;49.520;11.284;2023-11-21T03:10:33;96864.38;;;13.02;79.30
15932;BME280;8065;49.520;11.284;2023-11-21T03:13:04;96862.91;;;12.69;79.67
15932;BME280;8065;49.520;11.284;2023-11-21T03:15:32;96863.91;;;12.80;79.88
15932;BME280;8065;49.520;11.284;2023-11-21T03:18:00;96870.09;;;12.85;79.66
15932;BME280;8065;49.520;11.284;2023-11-21T03:20:30;96868.72;;;12.91;79.53
15932;BME280;8065;49.520;11.284;2023-11-21T03:22:58;96870.25;;;12.92;79.68
15932;BME280;8065;49.520;11.284;2023-11-21T03:25:27;96876.88;;;12.98;79.25
15932;BME280;8065;49.520;11.284;2023-11-21T03:27:56;96870.09;;;12.85;79.78
15932;BME280;8065;49.520;11.284;2023-11-21T03:30:27;96875.53;;;12.88;79.48
15932;BME280;8065;49.520;11.284;2023-11-21T03:32:55;96876.81;;;12.78;79.47
15932;BME280;8065;49.520;11.284;2023-11-21T03:35:23;96871.56;;;12.82;79.54
15932;BME280;8065;49.520;11.284;2023-11-21T03:37:53;96873.91;;;12.84;79.39
15932;BME280;8065;49.520;11.284;2023-11-21T03:40:21;96870.88;;;12.85;79.65
15932;BME280;8065;49.520;11.284;2023-11-21T03:42:50;96869.41;;;12.88;79.66
15932;BME280;8065;49.520;11.284;2023-11-21T03:45:18;96872.59;;;12.93;79.70
15932;BME280;8065;49.520;11.284;2023-11-21T03:47:49;96873.22;;;13.06;78.67
15932;BME280;8065;49.520;11.284;2023-11-21T03:50:18;96874.22;;;12.98;78.93
15932;BME280;8065;49.520;11.284;2023-11-21T03:52:46;96882.25;;;13.01;78.89
15932;BME280;8065;49.520;11.284;2023-11-21T03:55:14;96884.31;;;13.08;78.74
15932;BME280;8065;49.520;11.284;2023-11-21T03:57:43;96877.44;;;13.07;78.39
15932;BME280;8065;49.520;11.284;2023-11-21T04:00:12;96873.22;;;13.06;78.52
15932;BME280;8065;49.520;11.284;2023-11-21T04:02:40;96873.91;;;13.03;78.71
15932;BME280;8065;49.520;11.284;2023-11-21T04:05:11;96883.13;;;13.05;78.69
15932;BME280;8065;49.520;11.284;2023-11-21T04:07:40;96883.34;;;12.97;79.04
15932;BME280;8065;49.520;11.284;2023-11-21T04:10:08;96877.31;;;13.00;78.98
15932;BME280;8065;49.520;11.284;2023-11-21T04:12:38;96875.75;;;12.99;79.15
15932;BME280;8065;49.520;11.284;2023-11-21T04:15:08;96875.34;;;12.97;78.98
15932;BME280;8065;49.520;11.284;2023-11-21T04:17:37;96870.81;;;13.01;79.15
15932;BME280;8065;49.520;11.284;2023-11-21T04:20:08;96874.34;;;13.05;79.02
15932;BME280;8065;49.520;11.284;2023-11-21T04:22:39;96869.31;;;13.00;79.27
15932;BME280;8065;49.520;11.284;2023-11-21T04:25:13;96874.22;;;12.98;79.42
15932;BME280;8065;49.520;11.284;2023-11-21T04:27:42;96868.88;;;12.98;79.43
15932;BME280;8065;49.520;11.284;2023-11-21T04:30:12;96875.81;;;13.02;79.45
15932;BME280;8065;49.520;11.284;2023-11-21T04:32:41;96872.38;;;13.02;79.43
15932;BME280;8065;49.520;11.284;2023-11-21T04:35:09;96871.25;;;13.03;79.37
15932;BME280;8065;49.520;11.284;2023-11-21T04:37:40;96883.38;;;13.00;79.50
15932;BME280;8065;49.520;11.284;2023-11-21T04:40:10;96889.50;;;13.01;79.45
15932;BME280;8065;49.520;11.284;2023-11-21T04:42:38;96885.69;;;13.02;79.55
15932;BME280;8065;49.520;11.284;2023-11-21T04:45:08;96896.44;;;13.05;79.44
15932;BME280;8065;49.520;11.284;2023-11-21T04:47:37;96888.53;;;13.09;79.58
15932;BME280;8065;49.520;11.284;2023-11-21T04:50:06;96894.56;;;13.06;79.60
15932;BME280;8065;49.520;11.284;2023-11-21T04:52:34;96898.00;;;13.06;79.68
15932;BME280;8065;49.520;11.284;2023-11-21T04:55:06;96896.53;;;13.09;79.52
15932;BME280;8065;49.520;11.284;2023-11-21T04:57:35;96903.59;;;13.01;79.81
15932;BME280;8065;49.520;11.284;2023-11-21T05:00:04;96900.03;;;12.94;79.90
15932;BME280;8065;49.520;11.284;2023-11-21T05:02:33;96903.47;;;12.94;80.21
15932;BME280;8065;49.520;11.284;2023-11-21T05:05:04;96903.97;;;13.00;79.98
15932;BME280;8065;49.520;11.284;2023-11-21T05:07:33;96897.09;;;12.99;79.91
15932;BME280;8065;49.520;11.284;2023-11-21T05:10:02;96898.00;;;13.06;79.89
15932;BME280;8065;49.520;11.284;2023-11-21T05:12:35;96900.88;;;12.98;80.08
15932;BME280;8065;49.520;11.284;2023-11-21T05:15:06;96904.66;;;12.97;80.19
15932;BME280;8065;49.520;11.284;2023-11-21T05:17:35;96913.88;;;12.99;80.11
15932;BME280;8065;49.520;11.284;2023-11-21T05:20:06;96912.38;;;13.02;80.06
15932;BME280;8065;49.520;11.284;2023-11-21T05:22:37;96908.59;;;13.03;80.08
15932;BME280;8065;49.520;11.284;2023-11-21T05:25:08;96914.06;;;13.10;80.01
15932;BME280;8065;49.520;11.284;2023-11-21T05:27:39;96913.22;;;13.06;80.05
15932;BME280;8065;49.520;11.284;2023-11-21T05:30:08;96923.19;;;13.09;80.00
15932;BME280;8065;49.520;11.284;2023-11-21T05:32:38;96923.34;;;12.97;80.06
15932;BME280;8065;49.520;11.284;2023-11-21T05:35:07;96933.84;;;12.90;80.70
15932;BME280;8065;49.520;11.284;2023-11-21T05:37:40;96929.47;;;12.82;80.95
15932;BME280;8065;49.520;11.284;2023-11-21T05:40:09;96923.25;;;12.77;81.28
15932;BME280;8065;49.520;11.284;2023-11-21T05:42:40;96931.25;;;12.77;81.46
15932;BME280;8065;49.520;11.284;2023-11-21T05:45:09;96934.53;;;12.71;81.71
15932;BME280;8065;49.520;11.284;2023-11-21T05:47:39;96929.88;;;12.68;81.92
15932;BME280;8065;49.520;11.284;2023-11-21T05:50:09;96936.00;;;12.68;82.06
15932;BME280;8065;49.520;11.284;2023-11-21T05:52:41;96935.75;;;12.73;81.76
15932;BME280;8065;49.520;11.284;2023-11-21T05:55:10;96939.00;;;12.83;81.48
15932;BME280;8065;49.520;11.284;2023-11-21T05:57:42;96942.53;;;12.87;81.36
15932;BME280;8065;49.520;11.284;2023-11-21T06:00:13;96932.38;;;12.92;81.16
15932;BME280;8065;49.520;11.284;2023-11-21T06:02:45;96931.47;;;13.04;81.03
15932;BME280;8065;49.520;11.284;2023-11-21T06:05:16;96935.97;;;13.00;80.88
15932;BME280;8065;49.520;11.284;2023-11-21T06:07:45;96940.28;;;12.89;81.33
15932;BME280;8065;49.520;11.284;2023-11-21T06:10:13;96941.06;;;12.89;81.71
15932;BME280;8065;49.520;11.284;2023-11-21T06:12:47;96945.09;;;12.99;81.41
15932;BME280;8065;49.520;11.284;2023-11-21T06:15:15;96947.22;;;13.09;81.04
15932;BME280;8065;49.520;11.284;2023-11-21T06:17:44;96964.34;;;13.08;81.13
15932;BME280;8065;49.520;11.284;2023-11-21T06:20:17;96957.44;;;13.07;80.80
15932;BME280;8065;49.520;11.284;2023-11-21T06:22:47;96957.03;;;13.05;81.02
15932;BME280;8065;49.520;11.284;2023-11-21T06:25:16;96957.44;;;13.07;80.96
15932;BME280;8065;49.520;11.284;2023-11-21T06:27:48;96959.16;;;13.15;80.58
15932;BME280;8065;49.520;11.284;2023-11-21T06:30:17;96958.38;;;13.14;80.61
15932;BME280;8065;49.520;11.284;2023-11-21T06:32:45;96960.97;;;13.11;80.30
15932;BME280;8065;49.520;11.284;2023-11-21T06:35:14;96969.84;;;13.15;80.36
15932;BME280;8065;49.520;11.284;2023-11-21T06:37:42;96962.19;;;13.13;80.26
15932;BME280;8065;49.520;11.284;2023-11-21T06:40:13;96972.00;;;13.09;80.37
15932;BME280;8065;49.520;11.284;2023-11-21T06:42:44;96971.41;;;13.16;80.51
15932;BME280;8065;49.520;11.284;2023-11-21T06:45:15;96974.75;;;13.13;80.58
15932;BME280;8065;49.520;11.284;2023-11-21T06:47:43;96976.06;;;13.19;80.51
15932;BME280;8065;49.520;11.284;2023-11-21T06:50:12;96974.84;;;13.17;80.11
15932;BME280;8065;49.520;11.284;2023-11-21T06:52:40;96983.78;;;13.24;80.23
15932;BME280;8065;49.520;11.284;2023-11-21T06:55:07;96983.78;;;13.24;80.20
15932;BME280;8065;49.520;11.284;2023-11-21T06:57:36;96979.56;;;13.23;80.21
15932;BME280;8065;49.520;11.284;2023-11-21T07:00:05;96987.75;;;13.30;79.80
15932;BME280;8065;49.520;11.284;2023-11-21T07:02:37;96989.22;;;13.28;79.84
15932;BME280;8065;49.520;11.284;2023-11-21T07:05:05;96988.88;;;13.29;80.09
15932;BME280;8065;49.520;11.284;2023-11-21T07:07:34;96997.81;;;13.37;79.86
15932;BME280;8065;49.520;11.284;2023-11-21T07:10:05;97007.72;;;13.36;79.65
15932;BME280;8065;49.520;11.284;2023-11-21T07:12:33;96998.59;;;13.37;79.64
15932;BME280;8065;49.520;11.284;2023-11-21T07:15:02;97002.38;;;13.36;79.48
15932;BME280;8065;49.520;11.284;2023-11-21T07:17:37;97012.34;;;13.39;79.25
15932;BME280;8065;49.520;11.284;2023-11-21T07:20:06;97018.38;;;13.36;79.45
15932;BME280;8065;49.520;11.284;2023-11-21T07:22:34;97026.03;;;13.38;79.49
15932;BME280;8065;49.520;11.284;2023-11-21T07:25:04;97023.03;;;13.39;79.36
15932;BME280;8065;49.520;11.284;2023-11-21T07:27:32;97017.69;;;13.39;79.19
15932;BME280;8065;49.520;11.284;2023-11-21T07:30:03;97021.06;;;13.36;79.47
15932;BME280;8065;49.520;11.284;2023-11-21T07:32:33;97021.13;;;13.40;79.34
15932;BME280;8065;49.520;11.284;2023-11-21T07:35:05;97025.69;;;13.39;79.16
15932;BME280;8065;49.520;11.284;2023-11-21T07:37:33;97026.13;;;13.41;79.12
15932;BME280;8065;49.520;11.284;2023-11-21T07:40:02;97032.84;;;13.35;79.14
15932;BME280;8065;49.520;11.284;2023-11-21T07:42:31;97034.81;;;13.38;79.35
15932;BME280;8065;49.520;11.284;2023-11-21T07:44:59;97033.69;;;13.39;79.63
15932;BME280;8065;49.520;11.284;2023-11-21T07:47:28;97036.03;;;13.41;79.49
15932;BME280;8065;49.520;11.284;2023-11-21T07:49:59;97035.09;;;13.33;79.42
15932;BME280;8065;49.520;11.284;2023-11-21T07:52:30;97036.72;;;13.38;79.51
15932;BME280;8065;49.520;11.284;2023-11-21T07:54:58;97039.03;;;13.39;nan
15932;BME280;8065;49.520;11.284;2023-11-21T07:57:27;97039.03;;;13.39;79.56
15932;BME280;8065;49.520;11.284;2023-11-21T07:59:55;97042.06;;;13.38;79.41
15932;BME280;8065;49.520;11.284;2023-11-21T08:02:23;97052.66;;;13.34;79.63
15932;BME280;8065;49.520;11.284;2023-11-21T08:04:52;97052.91;;;13.45;79.49
15932;BME280;8065;49.520;11.284;2023-11-21T08:07:22;97050.56;;;13.43;79.40
15932;BME280;8065;49.520;11.284;2023-11-21T08:09:53;97046.78;;;13.44;79.47
15932;BME280;8065;49.520;11.284;2023-11-21T08:12:22;97058.84;;;13.38;79.60
15932;BME280;8065;49.520;11.284;2023-11-21T08:14:53;97054.88;;;13.32;80.15
15932;BME280;8065;49.520;11.284;2023-11-21T08:17:21;97044.97;;;13.49;79.67
15932;BME280;8065;49.520;11.284;2023-11-21T08:19:49;97052.31;;;13.36;80.02
15932;BME280;8065;49.520;11.284;2023-11-21T08:22:17;97055.66;;;13.49;79.69
15932;BME280;8065;49.520;11.284;2023-11-21T08:24:46;97060.81;;;13.57;79.88
15932;BME280;8065;49.520;11.284;2023-11-21T08:27:17;97061.31;;;13.63;79.71
15932;BME280;8065;49.520;11.284;2023-11-21T08:29:46;97055.19;;;13.62;79.40
15932;BME280;8065;49.520;11.284;2023-11-21T08:32:14;97057.78;;;13.59;79.10
15932;BME280;8065;49.520;11.284;2023-11-21T08:34:43;97051.75;;;13.62;79.16
15932;BME280;8065;49.520;11.284;2023-11-21T08:37:14;97052.78;;;13.57;79.23
15932;BME280;8065;49.520;11.284;2023-11-21T08:39:43;97063.19;;;13.62;79.07
15932;BME280;8065;49.520;11.284;2023-11-21T08:42:11;97059.91;;;13.69;79.01
15932;BME280;8065;49.520;11.284;2023-11-21T08:44:42;97058.03;;;13.69;79.00
15932;BME280;8065;49.520;11.284;2023-11-21T08:47:11;97064.41;;;13.65;78.96
15932;BME280;8065;49.520;11.284;2023-11-21T08:49:39;97066.66;;;13.63;79.00
15932;BME280;8065;49.520;11.284;2023-11-21T08:52:08;97072.84;;;13.67;79.09
15932;BME280;8065;49.520;11.284;2023-11-21T08:54:37;97080.25;;;13.73;78.94
15932;BME280;8065;49.520;11.284;2023-11-21T08:57:05;97076.44;;;13.74;78.93
15932;BME280;8065;49.520;11.284;2023-11-21T08:59:34;97081.38;;;13.72;79.17
15932;BME280;8065;49.520;11.284;2023-11-21T09:02:05;97083.91;;;13.85;78.63
15932;BME280;8065;49.520;11.284;2023-11-21T09:04:33;97088.75;;;13.79;78.69
15932;BME280;8065;49.520;11.284;2023-11-21T09:07:01;97087.38;;;13.85;78.52
15932;BME280;8065;49.520;11.284;2023-11-21T09:09:30;97092.75;;;13.89;78.81
15932;BME280;8065;49.520;11.284;2023-11-21T09:11:59;97096.38;;;13.96;78.47
15932;BME280;8065;49.520;11.284;2023-11-21T09:14:27;97092.16;;;13.95;78.50
15932;BME280;8065;49.520;11.284;2023-11-21T09:16:55;97104.66;;;13.91;78.50
15932;BME280;8065;49.520;11.284;2023-11-21T09:19:26;97102.56;;;14.00;78.78
15932;BME280;8065;49.520;11.284;2023-11-21T09:21:54;97106.00;;;14.01;78.50
15932;BME280;8065;49.520;11.284;2023-11-21T09:24:23;97115.50;;;13.98;78.77
15932;BME280;8065;49.520;11.284;2023-11-21T09:26:51;97113.81;;;14.09;78.44
15932;BME280;8065;49.520;11.284;2023-11-21T09:29:19;97112.34;;;14.12;77.93
15932;BME280;8065;49.520;11.284;2023-11-21T09:31:48;97118.41;;;14.09;78.21
15932;BME280;8065;49.520;11.284;2023-11-21T09:34:16;97118.81;;;14.11;78.09
15932;BME280;8065;49.520;11.284;2023-11-21T09:36:48;97119.88;;;14.06;78.61
15932;BME280;8065;49.520;11.284;2023-11-21T09:39:16;97115.38;;;14.10;78.34
15932;BME280;8065;49.520;11.284;2023-11-21T09:41:47;97118.63;;;14.20;77.96
15932;BME280;8065;49.520;11.284;2023-11-21T09:44:18;97119.47;;;14.24;77.65
15932;BME280;8065;49.520;11.284;2023-11-21T09:46:48;97121.38;;;14.23;77.66
15932;BME280;8065;49.520;11.284;2023-11-21T09:49:23;97119.28;;;14.32;77.61
15932;BME280;8065;49.520;11.284;2023-11-21T09:51:55;97119.53;;;14.43;77.45
15932;BME280;8065;49.520;11.284;2023-11-21T09:54:24;97118.81;;;14.46;77.58
15932;BME280;8065;49.520;11.284;2023-11-21T09:56:54;97113.19;;;14.51;77.48
15932;BME280;8065;49.520;11.284;2023-11-21T09:59:23;97114.75;;;14.52;77.15
15932;BME280;8065;49.520;11.284;2023-11-21T10:01:52;97107.22;;;14.58;76.59
15932;BME280;8065;49.520;11.284;2023-11-21T10:04:20;97114.19;;;14.62;76.41
15932;BME280;8065;49.520;11.284;2023-11-21T10:06:50;97117.00;;;14.69;75.93
15932;BME280;8065;49.520;11.284;2023-11-21T10:09:23;97118.72;;;14.81;75.72
15932;BME280;8065;49.520;11.284;2023-11-21T10:11:52;97111.84;;;15.03;75.11
15932;BME280;8065;49.520;11.284;2023-11-21T10:14:24;97109.13;;;15.22;74.50
15932;BME280;8065;49.520;11.284;2023-11-21T10:16:55;97106.19;;;15.77;73.53
15932;BME280;8065;49.520;11.284;2023-11-21T10:19:25;97110.38;;;16.00;72.88
15932;BME280;8065;49.520;11.284;2023-11-21T10:21:54;97112.09;;;15.63;72.45
15932;BME280;8065;49.520;11.284;2023-11-21T10:24:25;97113.31;;;15.43;73.98
15932;BME280;8065;49.520;11.284;2023-11-21T10:26:54;97108.38;;;15.45;73.88
15932;BME280;8065;49.520;11.284;2023-11-21T10:29:22;97105.97;;;15.62;73.74
15932;BME280;8065;49.520;11.284;2023-11-21T10:31:52;97109.75;;;15.84;73.74
15932;BME280;8065;49.520;11.284;2023-11-21T10:34:23;97106.41;;;15.91;73.65
15932;BME280;8065;49.520;11.284;2023-11-21T10:36:53;97109.84;;;15.65;73.21
15932;BME280;8065;49.520;11.284;2023-11-21T10:39:26;97107.59;;;15.21;74.35
15932;BME280;8065;49.520;11.284;2023-11-21T10:41:56;97110.44;;;15.55;73.53
15932;BME280;8065;49.520;11.284;2023-11-21T10:44:24;97112.75;;;15.56;73.87
15932;BME280;8065;49.520;11.284;2023-11-21T10:46:54;97108.91;;;15.54;73.73
15932;BME280;8065;49.520;11.284;2023-11-21T10:49:23;97111.50;;;15.73;73.25
15932;BME280;8065;49.520;11.284;2023-11-21T10:51:53;97110.88;;;15.57;73.74
15932;BME280;8065;49.520;11.284;2023-11-21T10:54:22;97109.22;;;15.75;73.14
15932;BME280;8065;49.520;11.284;2023-11-21T10:56:56;97117.97;;;15.72;72.94
15932;BME280;8065;49.520;11.284;2023-11-21T10:59:28;97122.00;;;15.59;73.13
15932;BME280;8065;49.520;11.284;2023-11-21T11:01:57;97120.75;;;15.53;72.89
15932;BME280;8065;49.520;11.284;2023-11-21T11:04:28;97125.25;;;15.26;73.72
15932;BME280;8065;49.520;11.284;2023-11-21T11:06:58;97122.47;;;15.41;73.49
15932;BME280;8065;49.520;11.284;2023-11-21T11:09:30;97127.66;;;14.89;75.00
15932;BME280;8065;49.520;11.284;2023-11-21T11:12:02;97122.22;;;15.27;74.60
15932;BME280;8065;49.520;11.284;2023-11-21T11:14:32;97126.63;;;15.16;75.46
15932;BME280;8065;49.520;11.284;2023-11-21T11:17:00;97122.41;;;15.38;74.58
15932;BME280;8065;49.520;11.284;2023-11-21T11:19:31;97124.31;;;15.37;74.39
15932;BME280;8065;49.520;11.284;2023-11-21T11:22:07;97128.22;;;15.21;74.48
15932;BME280;8065;49.520;11.284;2023-11-21T11:25:07;97120.56;;;15.19;75.44
15932;BME280;8065;49.520;11.284;2023-11-21T11:27:51;97124.91;;;15.27;75.37
15932;BME280;8065;49.520;11.284;2023-11-21T11:30:32;97124.47;;;15.25;74.92
15932;BME280;8065;49.520;11.284;2023-11-21T11:33:10;97125.00;;;15.12;76.07
15932;BME280;8065;49.520;11.284;2023-11-21T11:35:46;97124.41;;;14.99;75.90
15932;BME280;8065;49.520;11.284;2023-11-21T11:38:21;97123.13;;;14.93;75.95
15932;BME280;8065;49.520;11.284;2023-11-21T11:40:52;97129.06;;;14.83;76.43
15932;BME280;8065;49.520;11.284;2023-11-21T11:43:29;97123.91;;;14.93;75.77
15932;BME280;8065;49.520;11.284;2023-11-21T11:45:58;97130.69;;;14.87;75.86
15932;BME280;8065;49.520;11.284;2023-11-21T11:48:29;97130.53;;;14.80;76.24
15932;BME280;8065;49.520;11.284;2023-11-21T11:51:04;97135.53;;;14.82;75.81
15932;BME280;8065;49.520;11.284;2023-11-21T11:53:38;97131.31;;;14.81;76.10
15932;BME280;8065;49.520;11.284;2023-11-21T11:56:21;97137.50;;;14.85;76.06
15932;BME280;8065;49.520;11.284;2023-11-21T11:58:54;97129.91;;;14.87;75.83
15932;BME280;8065;49.520;11.284;2023-11-21T12:01:24;97131.06;;;14.66;76.33
15932;BME280;8065;49.520;11.284;2023-11-21T12:04:23;97133.47;;;14.71;76.83
15932;BME280;8065;49.520;11.284;2023-11-21T12:06:57;97138.91;;;14.79;76.65
15932;BME280;8065;49.520;11.284;2023-11-21T12:09:29;97136.41;;;14.66;77.32
15932;BME280;8065;49.520;11.284;2023-11-21T12:11:59;97144.09;;;14.68;77.36
15932;BME280;8065;49.520;11.284;2023-11-21T12:14:30;97141.88;;;14.73;77.22
15932;BME280;8065;49.520;11.284;2023-11-21T12:16:59;97149.19;;;14.76;76.75
15932;BME280;8065;49.520;11.284;2023-11-21T12:19:30;97146.66;;;14.84;76.75
15932;BME280;8065;49.520;11.284;2023-11-21T12:21:59;97142.16;;;14.88;76.78
15932;BME280;8065;49.520;11.284;2023-11-21T12:24:27;97141.72;;;14.86;77.53
15932;BME280;8065;49.520;11.284;2023-11-21T12:26:55;97139.75;;;14.83;77.05
15932;BME280;8065;49.520;11.284;2023-11-21T12:29:24;97147.59;;;14.72;77.55
15932;BME280;8065;49.520;11.284;2023-11-21T12:31:57;97145.44;;;14.58;77.87
15932;BME280;8065;49.520;11.284;2023-11-21T12:34:25;97153.66;;;14.34;78.85
15932;BME280;8065;49.520;11.284;2023-11-21T12:36:54;97155.56;;;14.49;78.65
15932;BME280;8065;49.520;11.284;2023-11-21T12:39:22;97154.66;;;14.61;78.48
15932;BME280;8065;49.520;11.284;2023-11-21T12:41:51;97156.34;;;14.69;77.82
15932;BME280;8065;49.520;11.284;2023-11-21T12:44:19;97147.94;;;14.51;78.49
15932;BME280;8065;49.520;11.284;2023-11-21T12:46:48;97157.75;;;14.63;78.09
15932;BME280;8065;49.520;11.284;2023-11-21T12:49:20;97164.84;;;14.55;78.72
15932;BME280;8065;49.520;11.284;2023-11-21T12:51:48;97160.59;;;14.73;77.84
15932;BME280;8065;49.520;11.284;2023-11-21T12:54:17;97165.94;;;14.73;77.67
15932;BME280;8065;49.520;11.284;2023-11-21T12:56:46;97162.56;;;14.76;77.96
15932;BME280;8065;49.520;11.284;2023-11-21T12:59:15;97166.50;;;14.83;77.61
15932;BME280;8065;49.520;11.284;2023-11-21T13:01:44;97170.75;;;14.64;78.30
15932;BME280;8065;49.520;11.284;2023-11-21T13:04:12;97172.47;;;14.72;78.18
15932;BME280;8065;49.520;11.284;2023-11-21T13:06:43;97178.06;;;14.87;77.62
15932;BME280;8065;49.520;11.284;2023-11-21T13:09:11;97172.91;;;14.97;77.44
15932;BME280;8065;49.520;11.284;2023-11-21T13:11:46;97180.72;;;15.06;76.96
15932;BME280;8065;49.520;11.284;2023-11-21T13:14:15;97173.72;;;15.21;75.71